sensor_id;sensor_type;location;lat;lon;timestamp;temperature;humidity
62573;DHT22;48626;51.678;5.806;2023-03-03T00:00:38;1.70;99.90
62573;DHT22;48626;51.678;5.806;2023-03-03T00:03:06;1.70;99.90
62573;DHT22;48626;51.678;5.806;2023-03-03T00:05:33;1.70;99.90
62573;DHT22;48626;51.678;5.806;2023-03-03T00:07:59;1.70;99.90
62573;DHT22;48626;51.678;5.806;2023-03-03T00:10:25;1.80;99.90
62573;DHT22;48626;51.678;5.806;2023-03-03T00:12:51;1.80;99.90
62573;DHT22;48626;51.678;5.806;2023-03-03T00:15:24;1.70;99.90
62573;DHT22;48626;51.678;5.806;2023-03-03T00:17:51;1.80;99.90
62573;DHT22;48626;51.678;5.806;2023-03-03T00:20:36;1.80;99.90
62573;DHT22;48626;51.678;5.806;2023-03-03T00:25:43;2.00;99.90
62573;DHT22;48626;51.678;5.806;2023-03-03T00:30:48;2.00;99.90
62573;DHT22;48626;51.678;5.806;2023-03-03T00:33:27;2.10;99.90
62573;DHT22;48626;51.678;5.806;2023-03-03T00:35:54;2.10;99.90
62573;DHT22;48626;51.678;5.806;2023-03-03T00:38:20;2.10;99.90
62573;DHT22;48626;51.678;5.806;2023-03-03T00:40:47;2.10;99.90
62573;DHT22;48626;51.678;5.806;2023-03-03T00:43:21;2.20;99.90
62573;DHT22;48626;51.678;5.806;2023-03-03T00:45:56;2.20;99.90
62573;DHT22;48626;51.678;5.806;2023-03-03T00:48:29;2.20;99.90
62573;DHT22;48626;51.678;5.806;2023-03-03T00:50:59;2.20;99.90
62573;DHT22;48626;51.678;5.806;2023-03-03T00:53:29;2.30;99.90
62573;DHT22;48626;51.678;5.806;2023-03-03T00:55:56;2.30;99.90
62573;DHT22;48626;51.678;5.806;2023-03-03T00:58:23;2.30;99.90
62573;DHT22;48626;51.678;5.806;2023-03-03T01:00:51;2.20;99.90
62573;DHT22;48626;51.678;5.806;2023-03-03T01:03:22;2.30;99.90
62573;DHT22;48626;51.678;5.806;2023-03-03T01:05:49;2.30;99.90
62573;DHT22;48626;51.678;5.806;2023-03-03T01:08:15;2.30;99.90
62573;DHT22;48626;51.678;5.806;2023-03-03T01:10:48;2.40;99.90
62573;DHT22;48626;51.678;5.806;2023-03-03T01:13:15;2.40;99.90
62573;DHT22;48626;51.678;5.806;2023-03-03T01:15:42;2.50;99.90
62573;DHT22;48626;51.678;5.806;2023-03-03T01:18:09;2.40;99.90
62573;DHT22;48626;51.678;5.806;2023-03-03T01:20:36;2.40;99.90
62573;DHT22;48626;51.678;5.806;2023-03-03T01:23:01;2.40;99.90
62573;DHT22;48626;51.678;5.806;2023-03-03T01:25:27;2.30;99.90
62573;DHT22;48626;51.678;5.806;2023-03-03T01:27:53;2.30;99.90
62573;DHT22;48626;51.678;5.806;2023-03-03T01:30:19;2.20;99.90
62573;DHT22;48626;51.678;5.806;2023-03-03T01:32:44;2.30;99.90
62573;DHT22;48626;51.678;5.806;2023-03-03T01:35:10;2.30;99.90
62573;DHT22;48626;51.678;5.806;2023-03-03T01:37:36;2.30;99.90
62573;DHT22;48626;51.678;5.806;2023-03-03T01:40:04;2.40;99.90
62573;DHT22;48626;51.678;5.806;2023-03-03T01:42:30;2.40;99.90
62573;DHT22;48626;51.678;5.806;2023-03-03T01:48:17;2.40;99.90
62573;DHT22;48626;51.678;5.806;2023-03-03T01:50:53;2.40;99.90
62573;DHT22;48626;51.678;5.806;2023-03-03T01:53:30;2.40;99.90
62573;DHT22;48626;51.678;5.806;2023-03-03T01:55:57;2.40;99.90
62573;DHT22;48626;51.678;5.806;2023-03-03T01:58:35;2.40;99.90
62573;DHT22;48626;51.678;5.806;2023-03-03T02:01:08;2.30;99.90
62573;DHT22;48626;51.678;5.806;2023-03-03T02:03:35;2.30;99.90
62573;DHT22;48626;51.678;5.806;2023-03-03T02:06:12;2.30;99.90
62573;DHT22;48626;51.678;5.806;2023-03-03T02:09:05;2.30;99.90
62573;DHT22;48626;51.678;5.806;2023-03-03T02:11:35;2.30;99.90
62573;DHT22;48626;51.678;5.806;2023-03-03T02:14:02;2.30;99.90
62573;DHT22;48626;51.678;5.806;2023-03-03T02:16:28;2.30;99.90
62573;DHT22;48626;51.678;5.806;2023-03-03T02:18:54;2.30;99.90
62573;DHT22;48626;51.678;5.806;2023-03-03T02:21:22;2.30;99.90
62573;DHT22;48626;51.678;5.806;2023-03-03T02:26:35;2.30;99.90
62573;DHT22;48626;51.678;5.806;2023-03-03T02:29:02;2.30;99.90
62573;DHT22;48626;51.678;5.806;2023-03-03T02:31:29;2.30;99.90
62573;DHT22;48626;51.678;5.806;2023-03-03T02:33:55;2.30;99.90
62573;DHT22;48626;51.678;5.806;2023-03-03T02:36:27;2.40;99.90
62573;DHT22;48626;51.678;5.806;2023-03-03T02:39:07;2.40;99.90
62573;DHT22;48626;51.678;5.806;2023-03-03T02:44:12;2.40;99.90
62573;DHT22;48626;51.678;5.806;2023-03-03T02:46:40;2.40;99.90
62573;DHT22;48626;51.678;5.806;2023-03-03T02:49:07;2.30;99.90
62573;DHT22;48626;51.678;5.806;2023-03-03T02:51:33;2.40;99.90
62573;DHT22;48626;51.678;5.806;2023-03-03T02:54:00;2.30;99.90
62573;DHT22;48626;51.678;5.806;2023-03-03T02:56:26;2.30;99.90
62573;DHT22;48626;51.678;5.806;2023-03-03T02:58:51;2.30;99.90
62573;DHT22;48626;51.678;5.806;2023-03-03T03:01:17;2.30;99.90
62573;DHT22;48626;51.678;5.806;2023-03-03T03:03:43;2.30;99.90
62573;DHT22;48626;51.678;5.806;2023-03-03T03:06:09;2.40;99.90
62573;DHT22;48626;51.678;5.806;2023-03-03T03:08:35;2.30;99.90
62573;DHT22;48626;51.678;5.806;2023-03-03T03:11:00;2.40;99.90
62573;DHT22;48626;51.678;5.806;2023-03-03T03:13:27;2.30;99.90
62573;DHT22;48626;51.678;5.806;2023-03-03T03:15:52;2.30;99.90
62573;DHT22;48626;51.678;5.806;2023-03-03T03:18:18;2.30;99.90
62573;DHT22;48626;51.678;5.806;2023-03-03T03:20:44;2.30;99.90
62573;DHT22;48626;51.678;5.806;2023-03-03T03:23:10;2.30;99.90
62573;DHT22;48626;51.678;5.806;2023-03-03T03:25:36;2.40;99.90
62573;DHT22;48626;51.678;5.806;2023-03-03T03:28:14;2.30;99.90
62573;DHT22;48626;51.678;5.806;2023-03-03T03:30:40;2.30;99.90
62573;DHT22;48626;51.678;5.806;2023-03-03T03:33:06;2.30;99.90
62573;DHT22;48626;51.678;5.806;2023-03-03T03:35:33;2.40;99.90
62573;DHT22;48626;51.678;5.806;2023-03-03T03:37:59;2.30;99.90
62573;DHT22;48626;51.678;5.806;2023-03-03T03:40:25;2.40;99.90
62573;DHT22;48626;51.678;5.806;2023-03-03T03:42:52;2.40;99.90
62573;DHT22;48626;51.678;5.806;2023-03-03T03:45:18;2.40;99.90
62573;DHT22;48626;51.678;5.806;2023-03-03T03:47:44;2.40;99.90
62573;DHT22;48626;51.678;5.806;2023-03-03T03:50:10;2.40;99.90
62573;DHT22;48626;51.678;5.806;2023-03-03T03:52:36;2.40;99.90
62573;DHT22;48626;51.678;5.806;2023-03-03T03:55:03;2.40;99.90
62573;DHT22;48626;51.678;5.806;2023-03-03T03:57:28;2.30;99.90
62573;DHT22;48626;51.678;5.806;2023-03-03T03:59:54;2.40;99.90
62573;DHT22;48626;51.678;5.806;2023-03-03T04:02:20;2.40;99.90
62573;DHT22;48626;51.678;5.806;2023-03-03T04:04:46;2.40;99.90
62573;DHT22;48626;51.678;5.806;2023-03-03T04:07:11;2.50;99.90
62573;DHT22;48626;51.678;5.806;2023-03-03T04:09:37;2.40;99.90
62573;DHT22;48626;51.678;5.806;2023-03-03T04:12:03;2.50;99.90
62573;DHT22;48626;51.678;5.806;2023-03-03T04:14:28;2.40;99.90
62573;DHT22;48626;51.678;5.806;2023-03-03T04:16:54;2.40;99.90
62573;DHT22;48626;51.678;5.806;2023-03-03T04:19:20;2.40;99.90
62573;DHT22;48626;51.678;5.806;2023-03-03T04:21:46;2.50;99.90
62573;DHT22;48626;51.678;5.806;2023-03-03T04:24:11;2.60;99.90
62573;DHT22;48626;51.678;5.806;2023-03-03T04:26:37;2.60;99.90
62573;DHT22;48626;51.678;5.806;2023-03-03T04:29:03;2.60;99.90
62573;DHT22;48626;51.678;5.806;2023-03-03T04:31:28;2.60;99.90
62573;DHT22;48626;51.678;5.806;2023-03-03T04:33:54;2.60;99.90
62573;DHT22;48626;51.678;5.806;2023-03-03T04:36:20;2.60;99.90
62573;DHT22;48626;51.678;5.806;2023-03-03T04:38:46;2.60;99.90
62573;DHT22;48626;51.678;5.806;2023-03-03T04:41:12;2.60;99.90
62573;DHT22;48626;51.678;5.806;2023-03-03T04:43:38;2.60;99.90
62573;DHT22;48626;51.678;5.806;2023-03-03T04:46:04;2.70;99.90
62573;DHT22;48626;51.678;5.806;2023-03-03T04:48:29;2.70;99.90
62573;DHT22;48626;51.678;5.806;2023-03-03T04:50:55;2.70;99.90
62573;DHT22;48626;51.678;5.806;2023-03-03T04:53:21;2.70;99.90
62573;DHT22;48626;51.678;5.806;2023-03-03T04:55:52;2.70;99.90
62573;DHT22;48626;51.678;5.806;2023-03-03T04:58:19;2.70;99.90
62573;DHT22;48626;51.678;5.806;2023-03-03T05:00:46;2.70;99.90
62573;DHT22;48626;51.678;5.806;2023-03-03T05:03:12;2.70;99.90
62573;DHT22;48626;51.678;5.806;2023-03-03T05:05:38;2.60;99.90
62573;DHT22;48626;51.678;5.806;2023-03-03T05:08:05;2.60;99.90
62573;DHT22;48626;51.678;5.806;2023-03-03T05:10:30;2.60;99.90
62573;DHT22;48626;51.678;5.806;2023-03-03T05:12:56;2.70;99.90
62573;DHT22;48626;51.678;5.806;2023-03-03T05:15:22;2.70;99.90
62573;DHT22;48626;51.678;5.806;2023-03-03T05:17:47;2.70;99.90
62573;DHT22;48626;51.678;5.806;2023-03-03T05:20:13;2.60;99.90
62573;DHT22;48626;51.678;5.806;2023-03-03T05:22:39;2.70;99.90
62573;DHT22;48626;51.678;5.806;2023-03-03T05:25:05;2.60;99.90
62573;DHT22;48626;51.678;5.806;2023-03-03T05:27:31;2.60;99.90
62573;DHT22;48626;51.678;5.806;2023-03-03T05:29:56;2.60;99.90
62573;DHT22;48626;51.678;5.806;2023-03-03T05:32:22;2.60;99.90
62573;DHT22;48626;51.678;5.806;2023-03-03T05:34:48;2.60;99.90
62573;DHT22;48626;51.678;5.806;2023-03-03T05:37:13;2.70;99.90
62573;DHT22;48626;51.678;5.806;2023-03-03T05:39:40;2.70;99.90
62573;DHT22;48626;51.678;5.806;2023-03-03T05:42:05;2.70;99.90
62573;DHT22;48626;51.678;5.806;2023-03-03T05:44:31;2.70;99.90
62573;DHT22;48626;51.678;5.806;2023-03-03T05:46:57;2.70;99.90
62573;DHT22;48626;51.678;5.806;2023-03-03T05:49:24;2.80;99.90
62573;DHT22;48626;51.678;5.806;2023-03-03T05:51:49;2.80;99.90
62573;DHT22;48626;51.678;5.806;2023-03-03T05:54:15;2.90;99.90
62573;DHT22;48626;51.678;5.806;2023-03-03T05:56:41;2.80;99.90
62573;DHT22;48626;51.678;5.806;2023-03-03T05:59:06;2.80;99.90
62573;DHT22;48626;51.678;5.806;2023-03-03T06:01:32;2.90;99.90
62573;DHT22;48626;51.678;5.806;2023-03-03T06:03:58;2.90;99.90
62573;DHT22;48626;51.678;5.806;2023-03-03T06:06:23;2.90;99.90
62573;DHT22;48626;51.678;5.806;2023-03-03T06:08:49;2.90;99.90
62573;DHT22;48626;51.678;5.806;2023-03-03T06:11:15;2.90;99.90
62573;DHT22;48626;51.678;5.806;2023-03-03T06:13:42;2.90;99.90
62573;DHT22;48626;51.678;5.806;2023-03-03T06:16:08;2.90;99.90
62573;DHT22;48626;51.678;5.806;2023-03-03T06:18:34;2.90;99.90
62573;DHT22;48626;51.678;5.806;2023-03-03T06:20:59;3.00;99.90
62573;DHT22;48626;51.678;5.806;2023-03-03T06:23:25;3.00;99.90
62573;DHT22;48626;51.678;5.806;2023-03-03T06:25:51;3.00;99.90
62573;DHT22;48626;51.678;5.806;2023-03-03T06:28:17;3.00;99.90
62573;DHT22;48626;51.678;5.806;2023-03-03T06:30:43;3.00;99.90
62573;DHT22;48626;51.678;5.806;2023-03-03T06:33:09;3.10;99.90
62573;DHT22;48626;51.678;5.806;2023-03-03T06:35:35;3.00;99.90
62573;DHT22;48626;51.678;5.806;2023-03-03T06:38:01;3.10;99.90
62573;DHT22;48626;51.678;5.806;2023-03-03T06:40:27;3.10;99.90
62573;DHT22;48626;51.678;5.806;2023-03-03T06:42:53;3.10;99.90
62573;DHT22;48626;51.678;5.806;2023-03-03T06:45:18;3.10;99.90
62573;DHT22;48626;51.678;5.806;2023-03-03T06:47:44;3.10;99.90
62573;DHT22;48626;51.678;5.806;2023-03-03T06:50:11;3.10;99.90
62573;DHT22;48626;51.678;5.806;2023-03-03T06:52:36;3.10;99.90
62573;DHT22;48626;51.678;5.806;2023-03-03T06:55:12;3.10;99.90
62573;DHT22;48626;51.678;5.806;2023-03-03T06:57:40;3.20;99.90
62573;DHT22;48626;51.678;5.806;2023-03-03T07:00:16;3.20;99.90
62573;DHT22;48626;51.678;5.806;2023-03-03T07:02:42;3.30;99.90
62573;DHT22;48626;51.678;5.806;2023-03-03T07:05:16;3.30;99.90
62573;DHT22;48626;51.678;5.806;2023-03-03T07:07:42;3.30;99.90
62573;DHT22;48626;51.678;5.806;2023-03-03T07:10:22;3.40;99.90
62573;DHT22;48626;51.678;5.806;2023-03-03T07:12:48;3.40;99.90
62573;DHT22;48626;51.678;5.806;2023-03-03T07:15:23;3.40;99.90
62573;DHT22;48626;51.678;5.806;2023-03-03T07:17:54;3.40;99.90
62573;DHT22;48626;51.678;5.806;2023-03-03T07:20:22;3.50;99.90
62573;DHT22;48626;51.678;5.806;2023-03-03T07:22:48;3.50;99.90
62573;DHT22;48626;51.678;5.806;2023-03-03T07:25:33;3.50;99.90
62573;DHT22;48626;51.678;5.806;2023-03-03T07:28:27;3.60;99.90
62573;DHT22;48626;51.678;5.806;2023-03-03T07:30:55;3.50;99.90
62573;DHT22;48626;51.678;5.806;2023-03-03T07:33:27;3.50;99.90
62573;DHT22;48626;51.678;5.806;2023-03-03T07:35:55;3.50;99.90
62573;DHT22;48626;51.678;5.806;2023-03-03T07:41:00;3.40;99.90
62573;DHT22;48626;51.678;5.806;2023-03-03T07:46:42;3.50;99.90
62573;DHT22;48626;51.678;5.806;2023-03-03T07:49:23;3.50;99.90
62573;DHT22;48626;51.678;5.806;2023-03-03T07:51:55;3.40;99.90
62573;DHT22;48626;51.678;5.806;2023-03-03T07:54:34;3.40;99.90
62573;DHT22;48626;51.678;5.806;2023-03-03T07:57:26;3.50;99.90
62573;DHT22;48626;51.678;5.806;2023-03-03T07:59:54;3.50;99.90
62573;DHT22;48626;51.678;5.806;2023-03-03T08:04:53;3.70;99.90
62573;DHT22;48626;51.678;5.806;2023-03-03T08:07:21;3.70;99.90
62573;DHT22;48626;51.678;5.806;2023-03-03T08:15:24;3.90;99.90
62573;DHT22;48626;51.678;5.806;2023-03-03T08:17:52;3.90;99.90
62573;DHT22;48626;51.678;5.806;2023-03-03T08:20:38;3.90;99.90
62573;DHT22;48626;51.678;5.806;2023-03-03T08:23:07;4.00;99.90
62573;DHT22;48626;51.678;5.806;2023-03-03T08:25:32;4.00;99.90
62573;DHT22;48626;51.678;5.806;2023-03-03T08:27:58;4.00;99.90
62573;DHT22;48626;51.678;5.806;2023-03-03T08:30:24;4.00;99.90
62573;DHT22;48626;51.678;5.806;2023-03-03T08:32:49;4.00;99.90
62573;DHT22;48626;51.678;5.806;2023-03-03T08:35:15;4.00;99.90
62573;DHT22;48626;51.678;5.806;2023-03-03T08:37:40;4.00;99.90
62573;DHT22;48626;51.678;5.806;2023-03-03T08:40:07;4.10;99.90
62573;DHT22;48626;51.678;5.806;2023-03-03T08:42:32;4.10;99.90
62573;DHT22;48626;51.678;5.806;2023-03-03T08:44:58;4.10;99.90
62573;DHT22;48626;51.678;5.806;2023-03-03T08:47:24;4.10;99.90
62573;DHT22;48626;51.678;5.806;2023-03-03T08:49:49;4.20;99.90
62573;DHT22;48626;51.678;5.806;2023-03-03T08:52:15;4.20;99.90
62573;DHT22;48626;51.678;5.806;2023-03-03T08:54:41;4.30;99.90
62573;DHT22;48626;51.678;5.806;2023-03-03T08:57:11;4.30;99.90
62573;DHT22;48626;51.678;5.806;2023-03-03T08:59:37;4.30;99.90
62573;DHT22;48626;51.678;5.806;2023-03-03T09:02:05;4.20;99.90
62573;DHT22;48626;51.678;5.806;2023-03-03T09:04:31;4.30;99.90
62573;DHT22;48626;51.678;5.806;2023-03-03T09:06:56;4.40;99.90
62573;DHT22;48626;51.678;5.806;2023-03-03T09:09:22;4.40;99.90
62573;DHT22;48626;51.678;5.806;2023-03-03T09:11:48;4.40;99.90
62573;DHT22;48626;51.678;5.806;2023-03-03T09:14:17;4.50;99.90
62573;DHT22;48626;51.678;5.806;2023-03-03T09:16:50;4.60;99.90
62573;DHT22;48626;51.678;5.806;2023-03-03T09:19:26;4.70;99.90
62573;DHT22;48626;51.678;5.806;2023-03-03T09:21:54;4.70;99.90
62573;DHT22;48626;51.678;5.806;2023-03-03T09:24:25;4.80;99.90
62573;DHT22;48626;51.678;5.806;2023-03-03T09:26:51;4.90;99.90
62573;DHT22;48626;51.678;5.806;2023-03-03T09:29:19;4.90;99.90
62573;DHT22;48626;51.678;5.806;2023-03-03T09:31:53;5.00;99.90
62573;DHT22;48626;51.678;5.806;2023-03-03T09:34:24;5.00;99.90
62573;DHT22;48626;51.678;5.806;2023-03-03T09:36:53;5.10;99.90
62573;DHT22;48626;51.678;5.806;2023-03-03T09:39:22;5.10;99.90
62573;DHT22;48626;51.678;5.806;2023-03-03T09:58:39;5.50;99.90
62573;DHT22;48626;51.678;5.806;2023-03-03T10:07:18;5.50;99.90
62573;DHT22;48626;51.678;5.806;2023-03-03T10:09:35;5.60;99.90
62573;DHT22;48626;51.678;5.806;2023-03-03T10:12:05;5.70;99.90
62573;DHT22;48626;51.678;5.806;2023-03-03T10:20:11;5.70;99.90
62573;DHT22;48626;51.678;5.806;2023-03-03T10:41:57;6.50;99.90
62573;DHT22;48626;51.678;5.806;2023-03-03T10:52:38;6.80;99.90
62573;DHT22;48626;51.678;5.806;2023-03-03T11:06:05;7.10;99.90
62573;DHT22;48626;51.678;5.806;2023-03-03T11:08:35;7.10;99.90
62573;DHT22;48626;51.678;5.806;2023-03-03T11:30:47;8.30;99.90
62573;DHT22;48626;51.678;5.806;2023-03-03T11:33:22;8.40;99.90
62573;DHT22;48626;51.678;5.806;2023-03-03T11:35:53;9.50;99.90
62573;DHT22;48626;51.678;5.806;2023-03-03T11:41:02;11.00;99.90
62573;DHT22;48626;51.678;5.806;2023-03-03T11:43:56;10.90;99.90
62573;DHT22;48626;51.678;5.806;2023-03-03T11:46:29;10.70;99.90
62573;DHT22;48626;51.678;5.806;2023-03-03T11:49:10;10.60;99.90
62573;DHT22;48626;51.678;5.806;2023-03-03T11:57:28;10.80;99.90
62573;DHT22;48626;51.678;5.806;2023-03-03T12:12:06;11.30;99.90
62573;DHT22;48626;51.678;5.806;2023-03-03T12:25:39;14.40;99.90
62573;DHT22;48626;51.678;5.806;2023-03-03T12:28:27;15.20;99.90
62573;DHT22;48626;51.678;5.806;2023-03-03T12:36:46;17.90;99.90
62573;DHT22;48626;51.678;5.806;2023-03-03T12:39:29;17.50;99.90
62573;DHT22;48626;51.678;5.806;2023-03-03T12:42:15;17.90;99.90
62573;DHT22;48626;51.678;5.806;2023-03-03T12:47:59;17.60;99.90
62573;DHT22;48626;51.678;5.806;2023-03-03T12:56:05;18.50;99.90
62573;DHT22;48626;51.678;5.806;2023-03-03T13:05:01;18.80;99.90
62573;DHT22;48626;51.678;5.806;2023-03-03T13:07:44;18.60;99.90
62573;DHT22;48626;51.678;5.806;2023-03-03T13:10:51;18.60;99.90
62573;DHT22;48626;51.678;5.806;2023-03-03T13:13:38;18.30;99.90
62573;DHT22;48626;51.678;5.806;2023-03-03T13:16:14;18.30;99.90
62573;DHT22;48626;51.678;5.806;2023-03-03T13:18:56;18.50;99.90
62573;DHT22;48626;51.678;5.806;2023-03-03T13:24:32;18.20;99.90
62573;DHT22;48626;51.678;5.806;2023-03-03T13:27:17;18.10;99.90
62573;DHT22;48626;51.678;5.806;2023-03-03T13:29:59;18.70;99.90
62573;DHT22;48626;51.678;5.806;2023-03-03T13:37:58;18.20;99.90
62573;DHT22;48626;51.678;5.806;2023-03-03T13:43:29;17.40;99.90
62573;DHT22;48626;51.678;5.806;2023-03-03T13:51:44;14.70;99.90
62573;DHT22;48626;51.678;5.806;2023-03-03T13:54:35;14.20;99.90
62573;DHT22;48626;51.678;5.806;2023-03-03T14:04:53;12.90;99.90
62573;DHT22;48626;51.678;5.806;2023-03-03T14:07:41;12.70;99.90
62573;DHT22;48626;51.678;5.806;2023-03-03T14:12:49;12.40;99.90
62573;DHT22;48626;51.678;5.806;2023-03-03T14:20:51;12.10;99.90
62573;DHT22;48626;51.678;5.806;2023-03-03T14:26:06;12.10;99.90
62573;DHT22;48626;51.678;5.806;2023-03-03T14:28:42;12.10;99.90
62573;DHT22;48626;51.678;5.806;2023-03-03T14:31:21;12.10;99.90
62573;DHT22;48626;51.678;5.806;2023-03-03T14:34:02;12.10;99.90
62573;DHT22;48626;51.678;5.806;2023-03-03T14:36:40;11.90;99.90
62573;DHT22;48626;51.678;5.806;2023-03-03T14:39:35;11.80;99.90
62573;DHT22;48626;51.678;5.806;2023-03-03T14:42:14;11.60;99.90
62573;DHT22;48626;51.678;5.806;2023-03-03T14:44:54;11.50;99.90
62573;DHT22;48626;51.678;5.806;2023-03-03T14:47:24;11.40;99.90
62573;DHT22;48626;51.678;5.806;2023-03-03T14:49:52;11.40;99.90
62573;DHT22;48626;51.678;5.806;2023-03-03T14:52:32;11.50;99.90
62573;DHT22;48626;51.678;5.806;2023-03-03T14:55:00;11.50;99.90
62573;DHT22;48626;51.678;5.806;2023-03-03T15:05:25;11.10;99.90
62573;DHT22;48626;51.678;5.806;2023-03-03T15:07:58;11.00;99.90
62573;DHT22;48626;51.678;5.806;2023-03-03T15:10:37;10.80;99.90
62573;DHT22;48626;51.678;5.806;2023-03-03T15:18:25;10.60;99.90
62573;DHT22;48626;51.678;5.806;2023-03-03T15:21:07;10.60;99.90
62573;DHT22;48626;51.678;5.806;2023-03-03T15:29:39;10.60;99.90
62573;DHT22;48626;51.678;5.806;2023-03-03T15:32:27;10.50;99.90
62573;DHT22;48626;51.678;5.806;2023-03-03T15:35:03;10.40;99.90
62573;DHT22;48626;51.678;5.806;2023-03-03T15:43:17;10.00;99.90
62573;DHT22;48626;51.678;5.806;2023-03-03T15:49:08;10.10;99.90
62573;DHT22;48626;51.678;5.806;2023-03-03T15:54:45;10.20;99.90
62573;DHT22;48626;51.678;5.806;2023-03-03T15:59:56;10.20;99.90
62573;DHT22;48626;51.678;5.806;2023-03-03T16:02:48;10.20;99.90
62573;DHT22;48626;51.678;5.806;2023-03-03T16:05:29;10.20;99.90
62573;DHT22;48626;51.678;5.806;2023-03-03T16:08:00;10.20;99.90
62573;DHT22;48626;51.678;5.806;2023-03-03T16:16:19;10.10;99.90
62573;DHT22;48626;51.678;5.806;2023-03-03T16:32:50;10.00;99.90
62573;DHT22;48626;51.678;5.806;2023-03-03T16:40:20;9.80;99.90
62573;DHT22;48626;51.678;5.806;2023-03-03T16:42:56;9.80;99.90
62573;DHT22;48626;51.678;5.806;2023-03-03T16:45:33;9.70;99.90
62573;DHT22;48626;51.678;5.806;2023-03-03T16:48:20;9.60;99.90
62573;DHT22;48626;51.678;5.806;2023-03-03T16:53:30;9.50;99.90
62573;DHT22;48626;51.678;5.806;2023-03-03T16:58:41;9.40;99.90
62573;DHT22;48626;51.678;5.806;2023-03-03T17:04:30;9.20;99.90
62573;DHT22;48626;51.678;5.806;2023-03-03T17:07:07;9.10;99.90
62573;DHT22;48626;51.678;5.806;2023-03-03T17:17:59;8.80;99.90
62573;DHT22;48626;51.678;5.806;2023-03-03T17:20:47;8.80;99.90
62573;DHT22;48626;51.678;5.806;2023-03-03T17:26:51;8.60;99.90
62573;DHT22;48626;51.678;5.806;2023-03-03T17:29:46;8.50;99.90
62573;DHT22;48626;51.678;5.806;2023-03-03T17:35:22;8.40;99.90
62573;DHT22;48626;51.678;5.806;2023-03-03T17:38:33;8.30;99.90
62573;DHT22;48626;51.678;5.806;2023-03-03T17:46:38;8.10;99.90
62573;DHT22;48626;51.678;5.806;2023-03-03T17:49:29;8.10;99.90
62573;DHT22;48626;51.678;5.806;2023-03-03T17:52:27;8.00;99.90
62573;DHT22;48626;51.678;5.806;2023-03-03T17:55:22;8.00;99.90
62573;DHT22;48626;51.678;5.806;2023-03-03T17:58:46;7.90;99.90
62573;DHT22;48626;51.678;5.806;2023-03-03T18:01:16;7.90;99.90
62573;DHT22;48626;51.678;5.806;2023-03-03T18:04:01;7.80;99.90
62573;DHT22;48626;51.678;5.806;2023-03-03T18:18:16;7.70;99.90
62573;DHT22;48626;51.678;5.806;2023-03-03T18:23:31;7.60;99.90
62573;DHT22;48626;51.678;5.806;2023-03-03T18:25:59;7.60;99.90
62573;DHT22;48626;51.678;5.806;2023-03-03T18:28:46;7.60;99.90
62573;DHT22;48626;51.678;5.806;2023-03-03T18:31:26;7.60;99.90
62573;DHT22;48626;51.678;5.806;2023-03-03T18:38:54;7.50;99.90
62573;DHT22;48626;51.678;5.806;2023-03-03T18:41:25;7.50;99.90
62573;DHT22;48626;51.678;5.806;2023-03-03T18:44:01;7.50;99.90
62573;DHT22;48626;51.678;5.806;2023-03-03T18:46:48;7.50;99.90
62573;DHT22;48626;51.678;5.806;2023-03-03T18:49:14;7.40;99.90
62573;DHT22;48626;51.678;5.806;2023-03-03T19:04:43;7.30;99.90
62573;DHT22;48626;51.678;5.806;2023-03-03T19:09:56;7.10;99.90
62573;DHT22;48626;51.678;5.806;2023-03-03T19:12:45;7.00;99.90
62573;DHT22;48626;51.678;5.806;2023-03-03T19:17:59;6.90;99.90
62573;DHT22;48626;51.678;5.806;2023-03-03T19:20:43;7.00;99.90
62573;DHT22;48626;51.678;5.806;2023-03-03T19:23:14;7.00;99.90
62573;DHT22;48626;51.678;5.806;2023-03-03T19:25:40;7.00;99.90
62573;DHT22;48626;51.678;5.806;2023-03-03T19:28:36;7.10;99.90
62573;DHT22;48626;51.678;5.806;2023-03-03T19:31:25;7.10;99.90
62573;DHT22;48626;51.678;5.806;2023-03-03T19:48:10;7.10;99.90
62573;DHT22;48626;51.678;5.806;2023-03-03T19:58:16;7.20;99.90
62573;DHT22;48626;51.678;5.806;2023-03-03T20:23:04;7.10;99.90
62573;DHT22;48626;51.678;5.806;2023-03-03T20:28:36;7.10;99.90
62573;DHT22;48626;51.678;5.806;2023-03-03T20:34:30;7.10;99.90
62573;DHT22;48626;51.678;5.806;2023-03-03T20:39:14;7.00;99.90
62573;DHT22;48626;51.678;5.806;2023-03-03T20:42:01;7.00;99.90
62573;DHT22;48626;51.678;5.806;2023-03-03T20:50:03;7.00;99.90
62573;DHT22;48626;51.678;5.806;2023-03-03T20:57:59;7.00;99.90
62573;DHT22;48626;51.678;5.806;2023-03-03T21:00:34;6.90;99.90
62573;DHT22;48626;51.678;5.806;2023-03-03T21:03:25;6.90;99.90
62573;DHT22;48626;51.678;5.806;2023-03-03T21:06:08;6.90;99.90
62573;DHT22;48626;51.678;5.806;2023-03-03T21:08:53;6.90;99.90
62573;DHT22;48626;51.678;5.806;2023-03-03T21:11:20;6.90;99.90
62573;DHT22;48626;51.678;5.806;2023-03-03T21:13:51;6.80;99.90
62573;DHT22;48626;51.678;5.806;2023-03-03T21:19:00;6.90;99.90
62573;DHT22;48626;51.678;5.806;2023-03-03T21:21:38;6.90;99.90
62573;DHT22;48626;51.678;5.806;2023-03-03T21:24:05;6.90;99.90
62573;DHT22;48626;51.678;5.806;2023-03-03T21:29:34;6.90;99.90
62573;DHT22;48626;51.678;5.806;2023-03-03T21:32:05;6.90;99.90
62573;DHT22;48626;51.678;5.806;2023-03-03T21:34:34;7.00;99.90
62573;DHT22;48626;51.678;5.806;2023-03-03T21:37:02;6.90;99.90
62573;DHT22;48626;51.678;5.806;2023-03-03T21:39:39;7.00;99.90
62573;DHT22;48626;51.678;5.806;2023-03-03T21:42:08;7.00;99.90
62573;DHT22;48626;51.678;5.806;2023-03-03T21:44:48;7.00;99.90
62573;DHT22;48626;51.678;5.806;2023-03-03T21:47:16;7.00;99.90
62573;DHT22;48626;51.678;5.806;2023-03-03T21:49:44;7.00;99.90
62573;DHT22;48626;51.678;5.806;2023-03-03T21:52:11;7.00;99.90
62573;DHT22;48626;51.678;5.806;2023-03-03T21:54:37;7.00;99.90
62573;DHT22;48626;51.678;5.806;2023-03-03T21:57:03;7.00;99.90
62573;DHT22;48626;51.678;5.806;2023-03-03T21:59:29;7.00;99.90
62573;DHT22;48626;51.678;5.806;2023-03-03T22:01:55;6.90;99.90
62573;DHT22;48626;51.678;5.806;2023-03-03T22:04:21;7.00;99.90
62573;DHT22;48626;51.678;5.806;2023-03-03T22:06:46;7.00;99.90
62573;DHT22;48626;51.678;5.806;2023-03-03T22:09:12;7.00;99.90
62573;DHT22;48626;51.678;5.806;2023-03-03T22:11:38;7.00;99.90
62573;DHT22;48626;51.678;5.806;2023-03-03T22:14:05;7.00;99.90
62573;DHT22;48626;51.678;5.806;2023-03-03T22:16:31;7.00;99.90
62573;DHT22;48626;51.678;5.806;2023-03-03T22:18:57;7.00;99.90
62573;DHT22;48626;51.678;5.806;2023-03-03T22:21:22;7.00;99.90
62573;DHT22;48626;51.678;5.806;2023-03-03T22:23:48;7.00;99.90
62573;DHT22;48626;51.678;5.806;2023-03-03T22:26:14;7.00;99.90
62573;DHT22;48626;51.678;5.806;2023-03-03T22:28:40;7.00;99.90
62573;DHT22;48626;51.678;5.806;2023-03-03T22:31:05;7.00;99.90
62573;DHT22;48626;51.678;5.806;2023-03-03T22:33:31;7.00;99.90
62573;DHT22;48626;51.678;5.806;2023-03-03T22:35:57;7.00;99.90
62573;DHT22;48626;51.678;5.806;2023-03-03T22:38:23;7.00;99.90
62573;DHT22;48626;51.678;5.806;2023-03-03T22:40:50;6.90;99.90
62573;DHT22;48626;51.678;5.806;2023-03-03T22:43:16;7.00;99.90
62573;DHT22;48626;51.678;5.806;2023-03-03T22:45:42;7.00;99.90